createdAt,value
2023-03-15T00:01:24.125Z,15.80
2023-03-15T00:03:50.991Z,13.65
2023-03-15T00:06:17.778Z,12.20
2023-03-15T00:08:47.375Z,15.27
2023-03-15T00:11:18.032Z,9.55
2023-03-15T00:13:45.716Z,16.80
2023-03-15T00:16:17.309Z,15.68
2023-03-15T00:18:45.426Z,11.68
2023-03-15T00:21:12.117Z,19.95
2023-03-15T00:23:38.822Z,22.50
2023-03-15T00:26:05.572Z,14.68
2023-03-15T00:28:32.203Z,21.88
2023-03-15T00:31:09.756Z,13.23
2023-03-15T00:33:36.570Z,12.27
2023-03-15T00:36:07.522Z,13.23
2023-03-15T00:38:35.555Z,10.10
2023-03-15T00:41:13.723Z,15.27
2023-03-15T00:43:40.628Z,8.70
2023-03-15T00:46:07.955Z,11.73
2023-03-15T00:48:37.419Z,8.88
2023-03-15T00:51:15.832Z,17.48
2023-03-15T00:53:45.360Z,11.57
2023-03-15T00:56:14.912Z,6.70
2023-03-15T00:58:41.770Z,9.90
2023-03-15T01:01:14.670Z,9.15
2023-03-15T01:03:41.833Z,7.68
2023-03-15T01:06:13.831Z,11.57
2023-03-15T01:08:41.254Z,12.20
2023-03-15T01:11:10.901Z,13.23
2023-03-15T01:13:38.444Z,8.18
2023-03-15T01:16:06.033Z,8.82
2023-03-15T01:18:32.810Z,14.75
2023-03-15T01:21:00.050Z,7.40
2023-03-15T01:23:26.780Z,9.80
2023-03-15T01:25:53.564Z,5.35
2023-03-15T01:28:20.276Z,6.97
2023-03-15T01:30:51.179Z,8.70
2023-03-15T01:33:18.106Z,8.20
2023-03-15T01:35:44.986Z,7.72
2023-03-15T01:38:12.309Z,11.25
2023-03-15T01:40:43.480Z,16.80
2023-03-15T01:43:21.751Z,11.63
2023-03-15T01:45:51.796Z,8.00
2023-03-15T01:48:18.746Z,8.35
2023-03-15T01:50:45.638Z,13.48
2023-03-15T01:53:12.597Z,9.57
2023-03-15T01:55:39.545Z,7.88
2023-03-15T01:58:06.912Z,16.35
2023-03-15T02:00:33.935Z,12.43
2023-03-15T02:03:03.714Z,16.60
2023-03-15T02:05:34.035Z,11.25
2023-03-15T02:08:01.976Z,11.30
2023-03-15T02:10:37.328Z,12.98
2023-03-15T02:13:04.449Z,16.83
2023-03-15T02:15:31.364Z,10.43
2023-03-15T02:17:58.123Z,11.90
2023-03-15T02:20:41.264Z,8.75
2023-03-15T02:23:16.081Z,11.48
2023-03-15T02:28:19.929Z,9.95
2023-03-15T02:30:47.161Z,12.35
2023-03-15T02:33:26.479Z,12.23
2023-03-15T02:35:53.928Z,14.00
2023-03-15T02:38:22.586Z,12.65
2023-03-15T02:40:49.456Z,12.35
2023-03-15T02:43:23.223Z,11.50
2023-03-15T02:45:50.536Z,9.57
2023-03-15T02:48:18.109Z,12.30
2023-03-15T02:50:44.781Z,9.05
2023-03-15T02:53:12.278Z,13.52
2023-03-15T02:55:39.176Z,9.90
2023-03-15T02:58:05.910Z,10.35
2023-03-15T03:00:32.754Z,11.35
2023-03-15T03:02:59.486Z,8.73
2023-03-15T03:05:26.310Z,14.65
2023-03-15T03:07:53.031Z,15.65
2023-03-15T03:10:21.427Z,13.88
2023-03-15T03:12:53.244Z,22.30
2023-03-15T03:15:20.735Z,14.98
2023-03-15T03:17:47.596Z,15.52
2023-03-15T03:20:15.158Z,15.00
2023-03-15T03:22:44.734Z,15.68
2023-03-15T03:25:12.467Z,16.02
2023-03-15T03:27:40.684Z,13.70
2023-03-15T03:30:11.401Z,13.93
2023-03-15T03:32:38.155Z,12.27
2023-03-15T03:35:05.127Z,12.07
2023-03-15T03:37:31.860Z,9.82
2023-03-15T03:39:58.806Z,12.38
2023-03-15T03:42:25.509Z,7.30
2023-03-15T03:44:54.354Z,6.25
2023-03-15T03:47:21.319Z,14.80
2023-03-15T03:49:48.003Z,12.65
2023-03-15T03:52:14.676Z,14.00
2023-03-15T03:54:42.732Z,13.57
2023-03-15T03:57:10.533Z,15.20
2023-03-15T03:59:37.238Z,8.80
2023-03-15T04:02:04.046Z,7.72
2023-03-15T04:04:30.792Z,9.43
2023-03-15T04:06:57.494Z,18.08
2023-03-15T04:09:25.005Z,11.40
2023-03-15T04:11:51.690Z,20.98
2023-03-15T04:14:18.380Z,18.80
2023-03-15T04:16:45.111Z,10.20
2023-03-15T04:19:13.037Z,17.60
2023-03-15T04:21:39.722Z,15.25
2023-03-15T04:24:07.442Z,16.98
2023-03-15T04:26:34.654Z,14.90
2023-03-15T04:29:01.392Z,14.93
2023-03-15T04:31:28.117Z,16.35
2023-03-15T04:33:55.453Z,13.75
2023-03-15T04:36:22.821Z,19.02
2023-03-15T04:38:49.604Z,14.60
2023-03-15T04:41:17.313Z,22.77
2023-03-15T04:43:44.422Z,12.50
2023-03-15T04:46:11.196Z,12.05
2023-03-15T04:48:37.837Z,12.13
2023-03-15T04:51:04.784Z,15.48
2023-03-15T04:53:31.630Z,16.40
2023-03-15T04:55:58.289Z,13.65
2023-03-15T04:58:24.986Z,12.10
2023-03-15T05:00:53.279Z,13.30
2023-03-15T05:03:19.967Z,12.02
2023-03-15T05:05:46.628Z,15.45
2023-03-15T05:08:13.290Z,18.52
2023-03-15T05:10:40.018Z,11.88
2023-03-15T05:13:06.763Z,10.65
2023-03-15T05:15:33.500Z,11.80
2023-03-15T05:18:00.136Z,17.30
2023-03-15T05:20:26.816Z,14.32
2023-03-15T05:22:53.494Z,10.32
2023-03-15T05:25:20.213Z,15.40
2023-03-15T05:27:46.911Z,23.13
2023-03-15T05:30:16.670Z,7.43
2023-03-15T05:32:44.774Z,8.55
2023-03-15T05:35:12.485Z,6.88
2023-03-15T05:37:39.393Z,6.28
2023-03-15T05:40:10.329Z,8.18
2023-03-15T05:42:37.062Z,11.80
2023-03-15T05:45:04.081Z,7.05
2023-03-15T05:47:32.496Z,12.80
2023-03-15T05:49:59.872Z,4.43
2023-03-15T05:52:26.847Z,9.35
2023-03-15T05:54:53.629Z,12.13
2023-03-15T05:57:20.333Z,13.45
2023-03-15T05:59:47.020Z,10.75
2023-03-15T06:02:13.786Z,9.27
2023-03-15T06:04:41.136Z,8.98
2023-03-15T06:07:08.063Z,8.52
2023-03-15T06:09:34.731Z,17.48
2023-03-15T06:12:01.429Z,6.10
2023-03-15T06:14:28.207Z,11.20
2023-03-15T06:16:54.962Z,9.15
2023-03-15T06:19:22.455Z,6.38
2023-03-15T06:21:49.206Z,14.57
2023-03-15T06:24:16.187Z,7.85
2023-03-15T06:26:43.221Z,10.52
2023-03-15T06:29:09.902Z,8.23
2023-03-15T06:31:36.572Z,13.98
2023-03-15T06:34:03.419Z,9.98
2023-03-15T06:36:31.383Z,13.75
2023-03-15T06:38:58.114Z,8.10
2023-03-15T06:41:24.798Z,17.08
2023-03-15T06:43:51.853Z,6.43
2023-03-15T06:46:18.602Z,9.80
2023-03-15T06:48:45.315Z,8.02
2023-03-15T06:51:12.065Z,9.52
2023-03-15T06:53:38.934Z,9.98
2023-03-15T06:56:05.740Z,10.38
2023-03-15T06:58:32.454Z,13.35
2023-03-15T07:01:00.244Z,10.88
2023-03-15T07:03:27.178Z,8.80
2023-03-15T07:05:53.995Z,4.57
2023-03-15T07:08:21.893Z,9.55
2023-03-15T07:10:49.591Z,7.97
2023-03-15T07:13:16.526Z,9.20
2023-03-15T07:15:43.307Z,11.40
2023-03-15T07:18:10.036Z,8.55
2023-03-15T07:20:37.790Z,7.03
2023-03-15T07:23:05.056Z,9.30
2023-03-15T07:25:32.452Z,8.18
2023-03-15T07:28:00.029Z,3.70
2023-03-15T07:30:27.800Z,6.70
2023-03-15T07:32:54.598Z,9.27
2023-03-15T07:35:21.316Z,10.50
2023-03-15T07:37:47.990Z,7.57
2023-03-15T07:40:15.993Z,12.77
2023-03-15T07:42:43.859Z,6.32
2023-03-15T07:45:11.017Z,4.85
2023-03-15T07:47:37.785Z,4.47
2023-03-15T07:50:06.316Z,4.65
2023-03-15T07:52:33.498Z,6.03
2023-03-15T07:55:00.221Z,4.75
2023-03-15T07:57:28.856Z,7.53
2023-03-15T07:59:56.174Z,9.23
2023-03-15T08:02:23.149Z,7.95
2023-03-15T08:04:51.338Z,10.70
2023-03-15T08:07:17.995Z,8.50
2023-03-15T08:09:44.958Z,15.25
2023-03-15T08:12:11.902Z,4.13
2023-03-15T08:14:38.611Z,6.75
2023-03-15T08:17:05.308Z,7.25
2023-03-15T08:19:32.344Z,9.75
2023-03-15T08:21:59.040Z,4.60
2023-03-15T08:24:27.013Z,7.85
2023-03-15T08:26:53.746Z,8.65
2023-03-15T08:29:20.561Z,7.00
2023-03-15T08:31:47.290Z,5.15
2023-03-15T08:34:14.081Z,5.82
2023-03-15T08:36:41.764Z,7.07
2023-03-15T08:39:08.580Z,7.53
2023-03-15T08:41:35.375Z,6.90
2023-03-15T08:44:02.047Z,5.63
2023-03-15T08:46:28.768Z,7.43
2023-03-15T08:48:55.477Z,12.45
2023-03-15T08:51:22.278Z,4.97
2023-03-15T08:53:49.000Z,5.75
2023-03-15T08:56:15.754Z,4.95
2023-03-15T08:58:42.395Z,5.47
2023-03-15T09:01:11.973Z,6.38
2023-03-15T09:03:38.910Z,4.95
2023-03-15T09:06:06.231Z,41.25
2023-03-15T09:08:33.385Z,9.50
2023-03-15T09:11:01.524Z,5.82
2023-03-15T09:13:29.154Z,7.05
2023-03-15T09:15:56.957Z,5.72
2023-03-15T09:18:24.439Z,5.10
2023-03-15T09:20:51.212Z,6.22
2023-03-15T09:23:17.902Z,3.58
2023-03-15T09:25:44.580Z,5.03
2023-03-15T09:28:11.651Z,1.38
2023-03-15T09:30:39.718Z,9.50
2023-03-15T09:33:06.575Z,6.13
2023-03-15T09:35:33.678Z,6.72
2023-03-15T09:38:00.586Z,6.25
2023-03-15T09:40:30.709Z,3.13
2023-03-15T09:43:06.324Z,4.60
2023-03-15T09:46:01.219Z,8.30
2023-03-15T09:48:29.734Z,6.47
2023-03-15T09:51:18.297Z,2.95
2023-03-15T09:54:02.717Z,4.20
2023-03-15T09:56:34.278Z,5.13
2023-03-15T09:59:02.153Z,3.70
2023-03-15T10:01:37.113Z,6.95
2023-03-15T10:04:25.420Z,6.43
2023-03-15T10:06:56.219Z,6.45
2023-03-15T10:09:26.617Z,1.88
2023-03-15T10:11:59.274Z,1.80
2023-03-15T10:14:50.574Z,4.10
2023-03-15T10:17:43.999Z,2.10
2023-03-15T10:20:20.862Z,3.22
2023-03-15T10:22:55.008Z,3.42
2023-03-15T10:25:29.901Z,3.83
2023-03-15T10:28:09.774Z,5.25
2023-03-15T10:30:38.598Z,1.88
2023-03-15T10:33:15.693Z,1.77
2023-03-15T10:35:42.932Z,1.42
2023-03-15T10:38:23.950Z,2.55
2023-03-15T10:40:51.912Z,7.97
2023-03-15T10:43:24.139Z,3.20
2023-03-15T10:46:12.436Z,1.92
2023-03-15T10:48:41.239Z,4.18
2023-03-15T10:51:29.226Z,1.80
2023-03-15T10:54:08.472Z,5.25
2023-03-15T10:57:02.206Z,1.88
2023-03-15T10:59:34.768Z,2.20
2023-03-15T11:02:27.839Z,2.65
2023-03-15T11:05:10.247Z,2.65
2023-03-15T11:07:36.975Z,4.88
2023-03-15T11:10:06.164Z,3.65
2023-03-15T11:12:34.957Z,3.30
2023-03-15T11:15:15.530Z,2.10
2023-03-15T11:17:47.812Z,2.85
2023-03-15T11:20:30.077Z,3.65
2023-03-15T11:22:57.789Z,7.90
2023-03-15T11:25:30.573Z,2.53
2023-03-15T11:27:57.725Z,2.20
2023-03-15T11:30:30.163Z,5.30
2023-03-15T11:33:02.421Z,2.97
2023-03-15T11:35:33.660Z,4.75
2023-03-15T11:38:15.327Z,2.45
2023-03-15T11:40:49.902Z,4.63
2023-03-15T11:43:25.126Z,4.53
2023-03-15T11:46:04.892Z,3.53
2023-03-15T11:48:40.932Z,4.25
2023-03-15T11:51:08.537Z,2.63
2023-03-15T11:53:40.126Z,4.05
2023-03-15T11:56:29.113Z,2.65
2023-03-15T11:59:16.945Z,5.18
2023-03-15T12:01:49.963Z,5.78
2023-03-15T12:04:25.757Z,3.38
2023-03-15T12:06:54.702Z,3.10
2023-03-15T12:09:41.284Z,3.38
2023-03-15T12:12:26.331Z,4.45
2023-03-15T12:15:05.313Z,4.13
2023-03-15T12:17:37.409Z,2.33
2023-03-15T12:20:13.962Z,3.20
2023-03-15T12:22:43.691Z,4.18
2023-03-15T12:25:17.032Z,4.80
2023-03-15T12:27:48.979Z,4.70
2023-03-15T12:30:30.275Z,4.70
2023-03-15T12:32:57.268Z,6.65
2023-03-15T12:35:29.147Z,4.35
2023-03-15T12:37:56.109Z,5.05
2023-03-15T12:40:38.935Z,2.17
2023-03-15T12:43:05.676Z,10.45
2023-03-15T12:45:38.684Z,3.10
2023-03-15T12:48:12.851Z,6.22
2023-03-15T12:50:45.747Z,7.00
2023-03-15T12:53:38.439Z,4.63
2023-03-15T12:56:32.627Z,4.88
2023-03-15T12:59:04.885Z,6.45
2023-03-15T13:01:33.421Z,8.15
2023-03-15T13:04:00.481Z,5.97
2023-03-15T13:06:46.807Z,7.82
2023-03-15T13:09:19.638Z,10.18
2023-03-15T13:12:15.257Z,5.30
2023-03-15T13:14:58.351Z,17.65
2023-03-15T13:17:55.684Z,7.13
2023-03-15T13:20:41.942Z,7.85
2023-03-15T13:23:29.376Z,5.30
2023-03-15T13:26:17.977Z,5.88
2023-03-15T13:28:50.690Z,9.00
2023-03-15T13:31:25.799Z,8.48
2023-03-15T13:33:58.082Z,6.60
2023-03-15T13:36:39.822Z,4.28
2023-03-15T13:39:27.536Z,3.50
2023-03-15T13:41:58.518Z,6.35
2023-03-15T13:44:25.908Z,4.53
2023-03-15T13:46:53.560Z,6.30
2023-03-15T13:49:21.014Z,4.07
2023-03-15T13:51:49.523Z,3.13
2023-03-15T13:54:19.528Z,4.00
2023-03-15T13:57:04.971Z,3.33
2023-03-15T13:59:53.572Z,10.60
2023-03-15T14:02:26.631Z,6.32
2023-03-15T14:05:09.212Z,4.65
2023-03-15T14:07:41.729Z,4.93
2023-03-15T14:10:26.576Z,3.60
2023-03-15T14:12:54.217Z,2.80
2023-03-15T14:15:34.153Z,4.80
2023-03-15T14:18:02.114Z,3.65
2023-03-15T14:20:33.558Z,2.83
2023-03-15T14:23:01.405Z,4.35
2023-03-15T14:25:28.261Z,4.75
2023-03-15T14:27:55.075Z,3.20
2023-03-15T14:30:24.097Z,5.90
2023-03-15T14:32:54.133Z,8.20
2023-03-15T14:35:32.110Z,4.40
2023-03-15T14:38:14.731Z,5.70
2023-03-15T14:40:42.008Z,2.88
2023-03-15T14:43:09.814Z,3.72
2023-03-15T14:45:38.416Z,5.53
2023-03-15T14:48:21.030Z,3.67
2023-03-15T14:50:48.120Z,6.03
2023-03-15T14:53:17.561Z,4.80
2023-03-15T14:55:44.439Z,8.95
2023-03-15T14:58:20.611Z,4.60
2023-03-15T15:00:49.689Z,3.92
2023-03-15T15:03:22.256Z,3.25
2023-03-15T15:05:49.278Z,4.70
2023-03-15T15:08:19.186Z,8.75
2023-03-15T15:10:47.070Z,6.22
2023-03-15T15:13:25.433Z,5.25
2023-03-15T15:15:56.102Z,6.38
2023-03-15T15:18:32.826Z,5.82
2023-03-15T15:21:02.816Z,6.75
2023-03-15T15:23:31.663Z,8.07
2023-03-15T15:26:01.363Z,6.90
2023-03-15T15:28:37.624Z,8.57
2023-03-15T15:31:06.092Z,5.85
2023-03-15T15:33:33.953Z,6.60
2023-03-15T15:36:01.128Z,7.35
2023-03-15T15:38:38.867Z,6.00
2023-03-15T15:41:11.134Z,6.50
2023-03-15T15:43:37.830Z,4.05
2023-03-15T15:46:04.692Z,10.48
2023-03-15T15:48:31.441Z,10.98
2023-03-15T15:50:58.270Z,5.78
2023-03-15T15:53:25.159Z,5.22
2023-03-15T15:55:51.882Z,5.00
2023-03-15T15:58:18.640Z,6.90
2023-03-15T16:00:45.290Z,7.43
2023-03-15T16:03:16.562Z,4.80
2023-03-15T16:05:43.485Z,8.93
2023-03-15T16:08:21.543Z,8.27
2023-03-15T16:10:48.537Z,14.45
2023-03-15T16:13:15.435Z,5.53
2023-03-15T16:15:42.157Z,5.15
2023-03-15T16:18:12.850Z,6.22
2023-03-15T16:20:40.596Z,3.53
2023-03-15T16:23:07.940Z,8.90
2023-03-15T16:25:35.831Z,7.75
2023-03-15T16:28:03.575Z,5.65
2023-03-15T16:30:33.110Z,4.97
2023-03-15T16:33:00.095Z,4.43
2023-03-15T16:35:32.658Z,3.00
2023-03-15T16:37:59.747Z,3.45
2023-03-15T16:40:32.148Z,2.78
2023-03-15T16:42:59.337Z,6.10
2023-03-15T16:45:26.762Z,3.88
2023-03-15T16:47:53.616Z,4.95
2023-03-15T16:50:20.648Z,5.03
2023-03-15T16:52:48.519Z,2.83
2023-03-15T16:55:17.264Z,8.20
2023-03-15T16:57:44.052Z,5.57
2023-03-15T17:00:16.648Z,6.40
2023-03-15T17:02:47.038Z,5.63
2023-03-15T17:05:19.851Z,25.13
2023-03-15T17:07:53.019Z,17.23
2023-03-15T17:10:23.025Z,14.38
2023-03-15T17:12:51.578Z,6.90
2023-03-15T17:15:20.554Z,6.80
2023-03-15T17:17:51.777Z,5.25
2023-03-15T17:20:21.880Z,5.60
2023-03-15T17:22:53.201Z,4.53
2023-03-15T17:25:20.485Z,6.60
2023-03-15T17:27:48.273Z,4.80
2023-03-15T17:30:18.068Z,7.20
2023-03-15T17:32:44.956Z,5.60
2023-03-15T17:35:12.415Z,8.50
2023-03-15T17:37:39.352Z,9.82
2023-03-15T17:40:16.689Z,7.38
2023-03-15T17:42:43.471Z,5.85
2023-03-15T17:45:22.080Z,6.60
2023-03-15T17:47:52.168Z,8.70
2023-03-15T17:50:19.295Z,8.77
2023-03-15T17:52:47.938Z,6.70
2023-03-15T17:55:16.584Z,5.40
2023-03-15T17:57:54.116Z,4.93
2023-03-15T18:00:23.185Z,7.97
2023-03-15T18:02:55.700Z,6.40
2023-03-15T18:05:25.486Z,6.32
2023-03-15T18:08:00.412Z,7.75
2023-03-15T18:10:35.955Z,4.88
2023-03-15T18:13:03.921Z,11.23
2023-03-15T18:15:30.841Z,19.83
2023-03-15T18:17:57.716Z,15.98
2023-03-15T18:20:24.479Z,11.27
2023-03-15T18:22:51.785Z,10.52
2023-03-15T18:25:22.723Z,11.02
2023-03-15T18:27:49.943Z,11.60
2023-03-15T18:30:19.791Z,17.45
2023-03-15T18:32:47.308Z,16.35
2023-03-15T18:35:26.204Z,19.23
2023-03-15T18:37:55.934Z,25.70
2023-03-15T18:40:22.866Z,32.38
2023-03-15T18:42:49.874Z,19.35
2023-03-15T18:45:22.444Z,10.57
2023-03-15T18:47:50.040Z,7.80
2023-03-15T18:50:17.488Z,6.97
2023-03-15T18:52:44.436Z,9.75
2023-03-15T18:55:16.452Z,7.95
2023-03-15T18:57:43.239Z,8.30
2023-03-15T19:00:15.523Z,10.05
2023-03-15T19:02:44.377Z,6.50
2023-03-15T19:05:13.096Z,8.02
2023-03-15T19:07:40.596Z,6.53
2023-03-15T19:10:13.656Z,6.13
2023-03-15T19:12:41.430Z,8.48
2023-03-15T19:15:11.653Z,8.93
2023-03-15T19:17:38.921Z,10.68
2023-03-15T19:20:07.660Z,8.77
2023-03-15T19:22:35.665Z,6.85
2023-03-15T19:25:02.406Z,4.95
2023-03-15T19:27:29.239Z,6.85
2023-03-15T19:29:55.967Z,4.18
2023-03-15T19:32:24.175Z,3.53
2023-03-15T19:34:50.899Z,5.72
2023-03-15T19:37:17.773Z,4.53
2023-03-15T19:39:44.869Z,6.50
2023-03-15T19:42:11.677Z,4.18
2023-03-15T19:44:38.415Z,7.90
2023-03-15T19:47:05.422Z,6.57
2023-03-15T19:49:32.069Z,3.42
2023-03-15T19:51:58.792Z,4.53
2023-03-15T19:54:25.443Z,5.03
2023-03-15T19:56:53.988Z,3.72
2023-03-15T19:59:20.658Z,3.47
2023-03-15T20:01:47.384Z,7.45
2023-03-15T20:04:14.075Z,3.70
2023-03-15T20:06:40.983Z,3.70
2023-03-15T20:09:07.903Z,3.33
2023-03-15T20:11:34.688Z,2.97
2023-03-15T20:14:02.165Z,3.60
2023-03-15T20:16:29.204Z,5.00
2023-03-15T20:18:56.098Z,4.32
2023-03-15T20:21:23.411Z,3.65
2023-03-15T20:23:50.442Z,3.92
2023-03-15T20:26:18.019Z,4.28
2023-03-15T20:28:46.992Z,5.93
2023-03-15T20:31:18.393Z,3.53
2023-03-15T20:33:48.758Z,6.00
2023-03-15T20:36:19.980Z,6.20
2023-03-15T20:38:46.772Z,4.25
2023-03-15T20:41:13.958Z,3.38
2023-03-15T20:43:41.341Z,5.00
2023-03-15T20:46:09.767Z,5.63
2023-03-15T20:48:37.429Z,3.03
2023-03-15T20:51:05.367Z,3.28
2023-03-15T20:53:34.123Z,4.78
2023-03-15T20:56:01.256Z,3.83
2023-03-15T20:58:28.353Z,3.80
2023-03-15T21:01:21.618Z,5.85
2023-03-15T21:03:48.562Z,2.00
2023-03-15T21:06:15.368Z,2.13
2023-03-15T21:08:42.443Z,2.38
2023-03-15T21:11:09.223Z,3.20
2023-03-15T21:13:36.075Z,2.33
2023-03-15T21:16:04.490Z,3.13
2023-03-15T21:18:32.136Z,2.78
2023-03-15T21:21:01.075Z,2.75
2023-03-15T21:23:31.171Z,3.47
2023-03-15T21:25:59.364Z,2.63
2023-03-15T21:28:26.317Z,6.38
2023-03-15T21:30:54.012Z,3.47
2023-03-15T21:33:22.890Z,4.47
2023-03-15T21:35:49.726Z,3.13
2023-03-15T21:38:16.657Z,3.53
2023-03-15T21:40:45.071Z,3.90
2023-03-15T21:43:12.154Z,2.80
2023-03-15T21:45:39.057Z,3.63
2023-03-15T21:48:06.091Z,2.60
2023-03-15T21:50:32.899Z,3.22
2023-03-15T21:52:59.732Z,3.95
2023-03-15T21:55:26.431Z,3.72
2023-03-15T21:57:53.185Z,2.95
2023-03-15T22:00:20.559Z,5.38
2023-03-15T22:02:47.327Z,4.18
2023-03-15T22:05:14.252Z,5.18
2023-03-15T22:07:41.972Z,3.25
2023-03-15T22:10:09.905Z,4.43
2023-03-15T22:12:37.245Z,3.33
2023-03-15T22:15:06.249Z,5.95
2023-03-15T22:17:33.838Z,3.17
2023-03-15T22:20:00.923Z,3.83
2023-03-15T22:22:27.986Z,3.95
2023-03-15T22:24:54.641Z,5.70
2023-03-15T22:27:21.519Z,5.18
2023-03-15T22:29:48.202Z,6.00
2023-03-15T22:32:15.226Z,3.10
2023-03-15T22:34:41.910Z,5.60
2023-03-15T22:37:08.696Z,7.47
2023-03-15T22:39:35.853Z,7.53
2023-03-15T22:42:02.512Z,8.20
2023-03-15T22:44:30.506Z,5.63
2023-03-15T22:46:57.328Z,5.13
2023-03-15T22:49:24.061Z,5.88
2023-03-15T22:51:50.834Z,6.53
2023-03-15T22:54:17.536Z,6.85
2023-03-15T22:56:44.267Z,3.88
2023-03-15T22:59:10.988Z,7.57
2023-03-15T23:01:37.717Z,5.65
2023-03-15T23:04:04.463Z,3.40
2023-03-15T23:06:31.154Z,5.88
2023-03-15T23:08:57.840Z,3.42
2023-03-15T23:11:24.519Z,5.85
2023-03-15T23:13:51.199Z,6.80
2023-03-15T23:16:19.278Z,5.32
2023-03-15T23:18:46.026Z,3.50
2023-03-15T23:21:14.141Z,6.03
2023-03-15T23:23:42.921Z,4.35
2023-03-15T23:26:10.002Z,4.18
2023-03-15T23:28:36.710Z,6.40
2023-03-15T23:31:05.812Z,6.63
2023-03-15T23:33:36.036Z,5.07
2023-03-15T23:36:05.620Z,5.07
2023-03-15T23:38:34.531Z,8.70
2023-03-15T23:41:01.829Z,5.70
2023-03-15T23:43:28.754Z,8.68
2023-03-15T23:45:56.766Z,7.93
2023-03-15T23:48:24.322Z,7.32
2023-03-15T23:50:54.833Z,8.05
2023-03-15T23:53:21.819Z,6.15
2023-03-15T23:55:48.951Z,8.00
2023-03-15T23:58:15.665Z,10.90
